Time;durP1;ratioP1;P1;durP2;ratioP2;P2;SDS_P1;SDS_P2;PMS_P1;PMS_P2;Temp;Humidity;BMP_temperature;BMP_pressure;BME280_temperature;BME280_humidity;BME280_pressure;Samples;Min_cycle;Max_cycle;Signal;HPM_P1;HPM_P2
2021/09/07 00:02:18;;;;;;;30.02;17.42;;;16.30;95.80;;;;;;5061144;28;20379;-68
2021/09/07 00:04:43;;;;;;;26.77;17.27;;;16.30;95.90;;;;;;5062141;28;20043;-68
2021/09/07 00:07:09;;;;;;;26.75;17.33;;;16.30;95.90;;;;;;5060831;28;20036;-68
2021/09/07 00:09:35;;;;;;;31.02;19.02;;;16.30;95.90;;;;;;5059548;28;20595;-68
2021/09/07 00:12:01;;;;;;;30.52;18.50;;;16.30;95.80;;;;;;5061799;28;20077;-68
2021/09/07 00:14:26;;;;;;;28.25;18.42;;;16.30;95.90;;;;;;5062835;28;20032;-67
2021/09/07 00:16:52;;;;;;;30.52;18.60;;;16.30;95.90;;;;;;5062368;28;20240;-68
2021/09/07 00:19:18;;;;;;;28.70;16.73;;;16.30;95.90;;;;;;5062321;28;20094;-68
2021/09/07 00:21:43;;;;;;;30.90;19.08;;;16.30;95.90;;;;;;5061057;28;20028;-68
2021/09/07 00:24:09;;;;;;;29.23;19.25;;;16.30;96.00;;;;;;5059902;28;20025;-68
2021/09/07 00:26:35;;;;;;;28.80;18.98;;;16.30;95.90;;;;;;5060889;28;20032;-68
2021/09/07 00:29:01;;;;;;;32.17;18.67;;;16.20;96.00;;;;;;5061485;28;20024;-68
2021/09/07 00:31:27;;;;;;;27.65;17.63;;;16.20;96.00;;;;;;5059982;28;20035;-68
2021/09/07 00:33:52;;;;;;;29.52;19.40;;;16.20;96.10;;;;;;5059737;28;20440;-68
2021/09/07 00:36:18;;;;;;;27.88;18.88;;;16.30;96.30;;;;;;5063051;28;20036;-68
2021/09/07 00:38:44;;;;;;;29.75;16.88;;;16.20;96.10;;;;;;5058627;28;20418;-68
2021/09/07 00:41:09;;;;;;;28.95;18.10;;;16.20;96.40;;;;;;5060314;28;20053;-68
2021/09/07 00:43:39;;;;;;;28.08;17.98;;;16.30;96.20;;;;;;5059105;28;20025;-68
2021/09/07 00:46:04;;;;;;;28.42;18.65;;;16.20;96.20;;;;;;5058798;28;20060;-68
2021/09/07 00:48:30;;;;;;;25.60;17.38;;;16.20;96.10;;;;;;5059597;28;20121;-68
2021/09/07 00:50:56;;;;;;;28.23;16.80;;;16.20;96.20;;;;;;5060449;28;20029;-67
2021/09/07 00:53:21;;;;;;;27.83;17.52;;;16.20;96.20;;;;;;5062115;28;20446;-68
2021/09/07 00:55:49;;;;;;;29.98;18.42;;;16.20;96.30;;;;;;5061539;28;20031;-68
2021/09/07 00:58:17;;;;;;;26.45;16.25;;;16.20;96.30;;;;;;5058533;28;20099;-68
2021/09/07 01:00:44;;;;;;;23.50;15.88;;;16.20;96.20;;;;;;5060454;28;20044;-68
2021/09/07 01:03:10;;;;;;;24.73;16.58;;;16.20;96.20;;;;;;5060036;28;20021;-68
2021/09/07 01:05:36;;;;;;;25.35;15.73;;;16.20;96.20;;;;;;5060116;28;20028;-68
2021/09/07 01:08:02;;;;;;;28.63;17.58;;;16.20;96.20;;;;;;5059036;28;20036;-68
2021/09/07 01:10:27;;;;;;;24.20;16.55;;;16.20;96.20;;;;;;5058815;28;20036;-68
2021/09/07 01:12:53;;;;;;;23.58;14.70;;;16.20;96.20;;;;;;5057289;28;20025;-68
2021/09/07 01:15:19;;;;;;;25.60;16.02;;;16.20;96.20;;;;;;5061596;28;20112;-69
2021/09/07 01:17:45;;;;;;;24.20;15.25;;;16.20;96.30;;;;;;5060826;28;20468;-68
2021/09/07 01:20:11;;;;;;;24.02;15.38;;;16.20;96.30;;;;;;5061429;28;20025;-68
2021/09/07 01:22:37;;;;;;;27.08;16.77;;;16.20;96.30;;;;;;5059849;28;20028;-68
2021/09/07 01:25:03;;;;;;;24.00;14.95;;;16.20;96.30;;;;;;5061194;28;20033;-68
2021/09/07 01:27:29;;;;;;;25.02;14.65;;;16.20;96.30;;;;;;5058990;28;20033;-68
2021/09/07 01:29:54;;;;;;;22.20;14.45;;;16.20;96.30;;;;;;5058471;28;20409;-67
2021/09/07 01:32:21;;;;;;;25.70;16.00;;;16.10;96.20;;;;;;5059817;28;20059;-68
2021/09/07 01:34:47;;;;;;;21.50;14.77;;;16.10;96.20;;;;;;5058003;28;20024;-68
2021/09/07 01:37:13;;;;;;;22.02;14.63;;;16.10;96.30;;;;;;5063008;28;20402;-68
2021/09/07 01:39:39;;;;;;;19.48;13.77;;;16.10;96.30;;;;;;5059357;28;20029;-68
2021/09/07 01:42:06;;;;;;;22.45;13.82;;;16.10;96.20;;;;;;5059887;28;20028;-68
2021/09/07 01:44:32;;;;;;;24.45;15.50;;;16.10;96.20;;;;;;5061066;28;20025;-68
2021/09/07 01:46:59;;;;;;;20.27;13.80;;;16.10;96.30;;;;;;5058787;28;20060;-68
2021/09/07 01:49:25;;;;;;;21.17;14.30;;;16.10;96.30;;;;;;5058989;28;20461;-68
2021/09/07 01:51:51;;;;;;;23.13;14.13;;;16.10;96.30;;;;;;5060168;28;20056;-68
2021/09/07 01:54:17;;;;;;;19.40;13.55;;;16.10;96.30;;;;;;5061716;28;20064;-68
2021/09/07 01:56:43;;;;;;;22.50;14.48;;;16.00;96.30;;;;;;5061388;28;20052;-68
2021/09/07 01:59:10;;;;;;;24.17;14.75;;;16.00;96.30;;;;;;5057364;28;20488;-69
2021/09/07 02:01:36;;;;;;;22.00;15.10;;;16.00;96.30;;;;;;5058119;28;20035;-68
2021/09/07 02:04:01;;;;;;;21.50;14.73;;;16.00;96.40;;;;;;5062462;28;20033;-68
2021/09/07 02:06:28;;;;;;;24.48;15.60;;;16.00;96.30;;;;;;5060505;28;20039;-68
2021/09/07 02:08:54;;;;;;;21.35;14.57;;;16.00;96.30;;;;;;5057642;28;20040;-68
2021/09/07 02:11:20;;;;;;;20.65;13.55;;;15.90;96.30;;;;;;5058162;28;20039;-67
2021/09/07 02:13:46;;;;;;;21.08;14.80;;;15.90;96.40;;;;;;5060960;28;20125;-68
2021/09/07 02:16:11;;;;;;;21.98;15.15;;;15.90;96.40;;;;;;5060265;28;20490;-68
2021/09/07 02:18:37;;;;;;;23.98;15.90;;;15.90;96.50;;;;;;5056921;28;20020;-69
2021/09/07 02:21:03;;;;;;;26.50;16.58;;;15.90;96.40;;;;;;5058906;28;20064;-68
2021/09/07 02:23:28;;;;;;;22.10;14.63;;;15.90;96.50;;;;;;5061181;28;20060;-68
2021/09/07 02:25:54;;;;;;;23.63;15.15;;;15.80;96.50;;;;;;5061927;28;20464;-68
2021/09/07 02:28:20;;;;;;;22.08;14.25;;;15.80;96.50;;;;;;5061592;28;20047;-68
2021/09/07 02:30:45;;;;;;;22.15;14.43;;;15.80;96.50;;;;;;5059704;28;20029;-68
2021/09/07 02:33:11;;;;;;;21.77;13.77;;;15.70;96.50;;;;;;5059134;28;20472;-68
2021/09/07 02:35:37;;;;;;;21.92;14.93;;;15.70;96.60;;;;;;5058992;28;20040;-67
2021/09/07 02:38:04;;;;;;;20.05;14.65;;;15.70;96.60;;;;;;5060504;28;20067;-68
2021/09/07 02:40:30;;;;;;;24.85;15.27;;;15.60;96.60;;;;;;5060902;28;20082;-68
2021/09/07 02:42:56;;;;;;;24.80;14.35;;;15.60;96.70;;;;;;5060062;28;20025;-68
2021/09/07 02:45:22;;;;;;;22.20;14.32;;;15.60;96.70;;;;;;5059953;28;20033;-68
2021/09/07 02:47:47;;;;;;;21.08;15.27;;;15.60;96.70;;;;;;5058999;28;20073;-68
2021/09/07 02:50:15;;;;;;;22.00;14.65;;;15.60;96.80;;;;;;5057926;28;20040;-68
2021/09/07 02:52:42;;;;;;;23.58;14.77;;;15.60;96.70;;;;;;5060573;28;20478;-67
2021/09/07 02:55:08;;;;;;;23.55;15.27;;;15.50;96.80;;;;;;5058557;28;20028;-68
2021/09/07 02:57:34;;;;;;;23.42;15.52;;;15.50;96.80;;;;;;5059289;28;20636;-68
2021/09/07 03:00:00;;;;;;;21.90;14.60;;;15.50;96.80;;;;;;5063676;28;20032;-67
2021/09/07 03:02:26;;;;;;;23.10;15.70;;;15.50;96.80;;;;;;5060969;28;20033;-68
2021/09/07 03:04:52;;;;;;;21.95;14.68;;;15.50;96.80;;;;;;5062853;28;20037;-68
2021/09/07 03:07:19;;;;;;;25.70;15.43;;;15.50;96.80;;;;;;5060913;28;20047;-68
2021/09/07 03:09:44;;;;;;;26.40;17.08;;;15.40;96.80;;;;;;5062156;28;20037;-68
2021/09/07 03:12:10;;;;;;;25.92;16.77;;;15.40;96.80;;;;;;5062304;28;20048;-68
2021/09/07 03:14:36;;;;;;;24.70;15.57;;;15.40;96.90;;;;;;5065520;28;20036;-68
2021/09/07 03:17:02;;;;;;;25.38;16.73;;;15.40;96.90;;;;;;5064449;28;20104;-67
2021/09/07 03:19:28;;;;;;;27.48;17.20;;;15.30;96.90;;;;;;5061241;28;20117;-69
2021/09/07 03:21:54;;;;;;;25.50;17.55;;;15.30;97.00;;;;;;5062511;28;20033;-68
2021/09/07 03:24:19;;;;;;;27.92;18.00;;;15.30;97.00;;;;;;5063412;28;20051;-68
2021/09/07 03:26:45;;;;;;;24.98;15.88;;;15.30;97.10;;;;;;5063874;28;20024;-68
2021/09/07 03:29:11;;;;;;;30.20;18.10;;;15.30;97.00;;;;;;5062979;28;20472;-68
2021/09/07 03:31:37;;;;;;;25.13;17.60;;;15.30;97.10;;;;;;5060809;28;20028;-68
2021/09/07 03:34:03;;;;;;;27.48;18.65;;;15.30;97.10;;;;;;5062419;28;20021;-67
2021/09/07 03:36:29;;;;;;;29.27;18.42;;;15.30;97.10;;;;;;5064162;28;20028;-68
2021/09/07 03:38:55;;;;;;;26.70;17.85;;;15.30;97.10;;;;;;5061923;28;20035;-68
2021/09/07 03:41:21;;;;;;;23.85;17.10;;;15.20;97.10;;;;;;5063247;28;20082;-68
2021/09/07 03:43:48;;;;;;;25.20;18.40;;;15.20;97.10;;;;;;5061441;28;20065;-68
2021/09/07 03:46:13;;;;;;;26.52;17.38;;;15.20;97.10;;;;;;5063303;28;20028;-68
2021/09/07 03:48:40;;;;;;;25.00;17.17;;;15.20;97.10;;;;;;5061378;28;20031;-68
2021/09/07 03:51:06;;;;;;;28.52;19.05;;;15.20;97.20;;;;;;5063736;28;20463;-68
2021/09/07 03:53:32;;;;;;;26.77;18.35;;;15.10;97.10;;;;;;5060927;28;20574;-68
2021/09/07 03:55:58;;;;;;;27.45;19.05;;;15.10;97.10;;;;;;5061695;28;20041;-68
2021/09/07 03:58:25;;;;;;;29.73;19.08;;;15.10;97.10;;;;;;5062945;28;20035;-68
2021/09/07 04:00:50;;;;;;;26.88;19.60;;;15.10;97.20;;;;;;5062083;28;20024;-68
2021/09/07 04:03:18;;;;;;;30.35;19.02;;;15.10;97.30;;;;;;5060672;28;20573;-68
2021/09/07 04:05:44;;;;;;;27.30;18.35;;;15.10;97.20;;;;;;5060621;28;20062;-68
2021/09/07 04:08:10;;;;;;;26.42;18.05;;;15.10;97.20;;;;;;5062131;28;20068;-68
2021/09/07 04:10:36;;;;;;;28.60;18.90;;;15.10;97.20;;;;;;5059849;28;20040;-68
2021/09/07 04:13:02;;;;;;;30.75;18.02;;;15.00;97.20;;;;;;5060364;28;20032;-70
2021/09/07 04:15:28;;;;;;;26.50;17.45;;;15.00;97.20;;;;;;5061706;28;20040;-69
2021/09/07 04:17:53;;;;;;;29.92;18.55;;;15.00;97.30;;;;;;5061685;28;20020;-69
2021/09/07 04:20:19;;;;;;;24.98;17.55;;;14.90;97.20;;;;;;5060395;28;20117;-69
2021/09/07 04:22:45;;;;;;;23.55;16.63;;;14.90;97.30;;;;;;5060572;28;20419;-69
2021/09/07 04:25:10;;;;;;;29.08;19.92;;;14.90;97.50;;;;;;5063844;28;20032;-69
2021/09/07 04:27:38;;;;;;;29.60;18.65;;;14.90;97.40;;;;;;5057600;28;20129;-69
2021/09/07 04:30:07;;;;;;;24.65;17.52;;;14.90;97.40;;;;;;5060586;28;20186;-69
2021/09/07 04:32:33;;;;;;;31.17;19.13;;;14.90;97.40;;;;;;5061190;28;20399;-69
2021/09/07 04:34:59;;;;;;;25.92;17.77;;;14.90;97.40;;;;;;5060299;28;20036;-69
2021/09/07 04:37:25;;;;;;;26.13;17.52;;;14.90;97.40;;;;;;5060191;28;20483;-69
2021/09/07 04:39:50;;;;;;;27.25;18.98;;;14.90;97.40;;;;;;5060903;28;20032;-68
2021/09/07 04:42:17;;;;;;;26.52;17.92;;;14.90;97.50;;;;;;5060575;28;20185;-69
2021/09/07 04:44:44;;;;;;;25.33;16.75;;;14.90;97.40;;;;;;5060229;28;20112;-69
2021/09/07 04:47:09;;;;;;;27.73;17.17;;;14.90;97.40;;;;;;5060454;28;20169;-69
2021/09/07 04:49:36;;;;;;;27.58;17.65;;;14.90;97.40;;;;;;5059797;28;20580;-69
2021/09/07 04:52:02;;;;;;;25.85;17.23;;;14.80;97.30;;;;;;5059306;28;20025;-69
2021/09/07 04:54:28;;;;;;;25.45;17.20;;;14.80;97.30;;;;;;5059586;28;20051;-69
2021/09/07 04:56:53;;;;;;;26.33;17.58;;;14.80;97.40;;;;;;5059253;28;20020;-68
2021/09/07 04:59:19;;;;;;;28.67;18.42;;;14.80;97.40;;;;;;5062259;28;20051;-69
2021/09/07 05:01:46;;;;;;;27.08;16.98;;;14.80;97.40;;;;;;5062924;28;21187;-69
2021/09/07 05:04:11;;;;;;;28.95;18.13;;;14.80;97.30;;;;;;5060244;28;20098;-69
2021/09/07 05:06:37;;;;;;;25.55;16.65;;;14.80;97.60;;;;;;5060414;28;20021;-68
2021/09/07 05:09:03;;;;;;;26.73;16.75;;;14.80;97.40;;;;;;5060178;28;20040;-69
2021/09/07 05:11:28;;;;;;;25.98;17.90;;;14.80;97.50;;;;;;5062792;28;20039;-68
2021/09/07 05:13:54;;;;;;;25.35;17.30;;;14.90;97.50;;;;;;5058890;28;20024;-68
2021/09/07 05:16:20;;;;;;;27.35;16.75;;;14.80;97.50;;;;;;5061338;28;20028;-68
2021/09/07 05:18:46;;;;;;;25.55;17.05;;;14.90;97.40;;;;;;5059314;28;20052;-68
2021/09/07 05:21:12;;;;;;;24.40;15.98;;;14.80;97.40;;;;;;5060052;28;20149;-68
2021/09/07 05:23:38;;;;;;;22.98;15.77;;;14.80;97.50;;;;;;5065518;28;20551;-68
2021/09/07 05:26:05;;;;;;;25.08;15.93;;;14.90;97.40;;;;;;5061069;28;20059;-68
2021/09/07 05:28:30;;;;;;;25.40;16.95;;;14.90;97.40;;;;;;5059861;28;20064;-69
2021/09/07 05:30:57;;;;;;;24.70;16.85;;;14.90;97.40;;;;;;5060745;28;20048;-69
2021/09/07 05:33:24;;;;;;;25.02;16.95;;;14.90;97.50;;;;;;5061035;28;20454;-68
2021/09/07 05:35:50;;;;;;;27.42;17.73;;;14.90;97.50;;;;;;5060539;28;20036;-68
2021/09/07 05:38:16;;;;;;;28.58;16.80;;;14.90;97.50;;;;;;5060281;28;20719;-68
2021/09/07 05:40:41;;;;;;;28.92;17.23;;;14.90;97.50;;;;;;5061238;28;20017;-68
2021/09/07 05:43:07;;;;;;;24.20;15.55;;;15.00;97.50;;;;;;5061528;28;20446;-69
2021/09/07 05:45:33;;;;;;;26.88;16.88;;;15.00;97.40;;;;;;5059387;28;20466;-68
2021/09/07 05:47:58;;;;;;;23.83;16.15;;;15.10;97.40;;;;;;5059849;28;20445;-68
2021/09/07 05:50:24;;;;;;;26.73;16.17;;;15.10;97.40;;;;;;5059885;28;20032;-68
2021/09/07 05:52:50;;;;;;;23.75;15.65;;;15.10;97.40;;;;;;5075631;28;20033;-68
2021/09/07 05:55:16;;;;;;;26.50;15.48;;;15.10;97.30;;;;;;5062701;28;20036;-68
2021/09/07 05:57:43;;;;;;;28.77;15.68;;;15.10;97.60;;;;;;5059392;28;20024;-68
2021/09/07 06:00:10;;;;;;;22.10;15.15;;;15.10;97.40;;;;;;5059457;28;20021;-69
2021/09/07 06:02:37;;;;;;;26.08;16.20;;;15.10;97.40;;;;;;5060206;28;20036;-70
2021/09/07 06:05:04;;;;;;;25.02;14.95;;;15.20;97.30;;;;;;5063908;28;20025;-70
2021/09/07 06:07:29;;;;;;;21.08;14.10;;;15.20;97.20;;;;;;5058667;28;20155;-69
2021/09/07 06:09:55;;;;;;;26.17;15.90;;;15.20;97.30;;;;;;5053073;28;20574;-70
2021/09/07 06:12:21;;;;;;;23.23;13.93;;;15.30;97.30;;;;;;5047977;28;20120;-68
2021/09/07 06:14:46;;;;;;;21.38;12.75;;;15.40;97.20;;;;;;5058584;28;20032;-68
2021/09/07 06:17:12;;;;;;;22.60;14.23;;;15.40;97.10;;;;;;5055032;28;20571;-69
2021/09/07 06:19:38;;;;;;;30.52;15.35;;;15.40;97.10;;;;;;5060404;28;20115;-68
2021/09/07 06:22:04;;;;;;;22.52;13.25;;;15.50;97.00;;;;;;5058512;28;20367;-68
2021/09/07 06:24:30;;;;;;;19.85;13.27;;;15.60;97.00;;;;;;5062534;28;20025;-68
2021/09/07 06:26:56;;;;;;;20.42;11.18;;;15.60;96.90;;;;;;5062223;28;20379;-68
2021/09/07 06:29:21;;;;;;;20.17;12.00;;;15.60;96.80;;;;;;5059100;28;20040;-68
2021/09/07 06:31:47;;;;;;;21.80;12.00;;;15.70;96.70;;;;;;5064410;28;20024;-68
2021/09/07 06:34:13;;;;;;;17.67;11.02;;;15.70;96.70;;;;;;5060213;28;20032;-68
2021/09/07 06:36:38;;;;;;;17.88;10.43;;;15.70;96.70;;;;;;5062346;28;20082;-68
2021/09/07 06:39:04;;;;;;;18.50;10.55;;;15.70;96.70;;;;;;5060386;28;20029;-68
2021/09/07 06:41:30;;;;;;;21.70;11.00;;;15.70;96.60;;;;;;5055862;28;20071;-67
2021/09/07 06:43:55;;;;;;;19.38;10.18;;;15.70;96.60;;;;;;5064991;28;20025;-68
2021/09/07 06:46:21;;;;;;;18.70;10.15;;;15.80;96.50;;;;;;5064123;28;20082;-68
2021/09/07 06:48:47;;;;;;;18.08;10.77;;;15.80;96.50;;;;;;5059760;28;20033;-67
2021/09/07 06:51:12;;;;;;;16.33;10.50;;;15.80;96.40;;;;;;5064923;28;20436;-68
2021/09/07 06:53:38;;;;;;;17.90;11.20;;;15.80;96.40;;;;;;5063580;28;20090;-68
2021/09/07 06:56:04;;;;;;;13.68;8.93;;;15.80;96.30;;;;;;5062050;28;20143;-67
2021/09/07 06:58:30;;;;;;;11.85;6.97;;;15.90;96.30;;;;;;5063868;28;20059;-68
2021/09/07 07:00:56;;;;;;;12.80;7.28;;;15.90;96.30;;;;;;5058391;28;20057;-68
2021/09/07 07:03:22;;;;;;;12.55;7.28;;;15.90;96.20;;;;;;5062858;28;20082;-68
2021/09/07 07:05:47;;;;;;;11.73;7.55;;;16.00;96.10;;;;;;5064251;28;20447;-67
2021/09/07 07:08:13;;;;;;;11.77;6.88;;;16.00;95.90;;;;;;5058082;28;20605;-68
2021/09/07 07:10:39;;;;;;;11.25;7.00;;;16.00;95.90;;;;;;5063467;28;20029;-68
2021/09/07 07:13:05;;;;;;;12.98;6.80;;;16.00;95.90;;;;;;5061924;28;20096;-67
2021/09/07 07:15:31;;;;;;;15.32;8.07;;;16.00;95.90;;;;;;5056938;28;20086;-68
2021/09/07 07:17:57;;;;;;;10.25;6.88;;;16.00;95.90;;;;;;5058834;28;20025;-68
2021/09/07 07:20:23;;;;;;;10.70;6.55;;;15.90;95.90;;;;;;5055948;28;20027;-68
2021/09/07 07:22:50;;;;;;;13.38;6.85;;;15.90;96.00;;;;;;5057852;28;20036;-68
2021/09/07 07:25:15;;;;;;;10.20;6.57;;;16.00;95.90;;;;;;5057485;28;20111;-68
2021/09/07 07:27:42;;;;;;;12.23;6.82;;;16.00;95.80;;;;;;5056822;28;20182;-68
2021/09/07 07:30:09;;;;;;;9.70;6.95;;;16.10;95.80;;;;;;5062295;28;20040;-67
2021/09/07 07:32:35;;;;;;;11.30;6.55;;;16.10;95.70;;;;;;5062433;28;20029;-68
2021/09/07 07:35:01;;;;;;;11.85;6.85;;;16.10;95.60;;;;;;5061412;28;20448;-68
2021/09/07 07:37:27;;;;;;;10.65;6.63;;;16.20;95.50;;;;;;5058067;28;20440;-68
2021/09/07 07:39:52;;;;;;;9.02;6.65;;;16.20;95.30;;;;;;5055264;28;20073;-67
2021/09/07 07:42:18;;;;;;;8.85;6.18;;;16.30;95.30;;;;;;5057785;28;20028;-68
2021/09/07 07:44:44;;;;;;;8.98;5.75;;;16.30;95.20;;;;;;5055418;28;20111;-68
2021/09/07 07:47:10;;;;;;;10.93;5.32;;;16.30;95.00;;;;;;5054579;28;20029;-68
2021/09/07 07:49:35;;;;;;;9.75;6.32;;;16.30;94.80;;;;;;5055465;28;20033;-67
2021/09/07 07:52:01;;;;;;;10.20;5.90;;;16.40;94.80;;;;;;5056547;28;20535;-68
2021/09/07 07:54:27;;;;;;;8.95;5.35;;;16.40;94.60;;;;;;5061495;28;20572;-68
2021/09/07 07:56:52;;;;;;;7.53;5.20;;;16.50;94.30;;;;;;5066737;28;20028;-68
2021/09/07 07:59:18;;;;;;;7.13;5.22;;;16.50;93.70;;;;;;5064212;28;20033;-67
2021/09/07 08:01:44;;;;;;;8.23;4.72;;;16.50;93.50;;;;;;5062212;28;20021;-68
2021/09/07 08:04:09;;;;;;;7.93;4.63;;;16.60;93.40;;;;;;5062721;28;20390;-68
2021/09/07 08:06:35;;;;;;;10.00;4.95;;;16.60;93.10;;;;;;5064852;28;20047;-68
2021/09/07 08:09:01;;;;;;;9.27;5.07;;;16.70;92.90;;;;;;5060970;28;20029;-68
2021/09/07 08:11:27;;;;;;;7.43;4.95;;;16.70;92.50;;;;;;5059456;28;20037;-67
2021/09/07 08:13:53;;;;;;;10.60;5.05;;;16.70;92.50;;;;;;5057703;28;20510;-68
2021/09/07 08:16:20;;;;;;;9.48;5.55;;;16.80;92.60;;;;;;5056743;28;20590;-68
2021/09/07 08:18:46;;;;;;;9.57;4.68;;;16.90;92.30;;;;;;5058882;28;20065;-68
2021/09/07 08:21:12;;;;;;;7.13;4.50;;;16.90;91.60;;;;;;5062911;28;20426;-68
2021/09/07 08:23:38;;;;;;;8.35;4.65;;;17.00;91.60;;;;;;5060632;28;20021;-68
2021/09/07 08:26:04;;;;;;;9.77;4.70;;;17.00;91.30;;;;;;5060291;28;20086;-67
2021/09/07 08:28:29;;;;;;;6.90;4.25;;;17.10;90.90;;;;;;5061941;28;20039;-68
2021/09/07 08:30:55;;;;;;;6.47;4.15;;;17.10;90.90;;;;;;5061005;28;20457;-68
2021/09/07 08:33:21;;;;;;;8.23;3.97;;;17.10;91.00;;;;;;5061668;28;20029;-68
2021/09/07 08:35:47;;;;;;;8.80;4.60;;;17.20;90.90;;;;;;5060943;28;20037;-68
2021/09/07 08:38:13;;;;;;;6.93;4.28;;;17.20;90.90;;;;;;5062037;28;20479;-68
2021/09/07 08:40:40;;;;;;;6.45;4.30;;;17.30;91.20;;;;;;5061045;28;20021;-68
2021/09/07 08:43:07;;;;;;;6.20;3.33;;;17.30;90.90;;;;;;5059198;28;20476;-68
2021/09/07 08:45:33;;;;;;;5.82;3.20;;;17.40;90.60;;;;;;5061699;28;20401;-68
2021/09/07 08:48:01;;;;;;;4.50;2.85;;;17.40;90.30;;;;;;5062994;28;20117;-68
2021/09/07 08:50:27;;;;;;;5.47;2.97;;;17.40;90.30;;;;;;5062222;28;20086;-68
2021/09/07 08:52:59;;;;;;;5.15;2.65;;;17.50;90.10;;;;;;5061924;28;20033;-68
2021/09/07 08:55:28;;;;;;;;;;;17.50;85.40;;;;;;5060898;28;20394;-68
2021/09/07 08:57:54;;;;;;;3.65;2.40;;;17.50;85.70;;;;;;5060141;28;19915;-68
2021/09/07 09:00:29;;;;;;;3.13;2.13;;;17.50;85.00;;;;;;5061073;28;20028;-67
2021/09/07 09:02:58;;;;;;;2.95;2.17;;;17.60;82.20;;;;;;5061884;28;20048;-67
2021/09/07 09:05:29;;;;;;;4.10;2.40;;;17.70;84.00;;;;;;5060287;28;20040;-68
2021/09/07 09:07:57;;;;;;;3.72;2.30;;;17.70;84.30;;;;;;5062669;28;20119;-68
2021/09/07 09:10:25;;;;;;;2.80;1.90;;;17.80;82.90;;;;;;5060151;28;20401;-68
2021/09/07 09:13:29;;;;;;;4.20;2.30;;;17.80;81.80;;;;;;5060585;28;20020;-68
2021/09/07 09:16:03;;;;;;;4.20;2.35;;;17.90;78.90;;;;;;5059240;28;20037;-68
2021/09/07 09:18:40;;;;;;;3.42;2.30;;;18.00;80.80;;;;;;5060667;28;20083;-68
2021/09/07 09:21:27;;;;;;;4.90;2.58;;;18.10;81.00;;;;;;5063481;28;20036;-68
2021/09/07 09:24:12;;;;;;;6.10;2.63;;;18.10;81.20;;;;;;5061556;28;20025;-68
2021/09/07 09:26:55;;;;;;;5.05;2.83;;;18.20;81.80;;;;;;5061306;28;20497;-68
2021/09/07 09:29:27;;;;;;;5.03;2.42;;;18.20;81.80;;;;;;5060106;28;20562;-68
2021/09/07 09:32:06;;;;;;;4.97;3.15;;;18.30;81.90;;;;;;5059418;28;20074;-68
2021/09/07 09:34:34;;;;;;;7.43;3.42;;;18.40;81.30;;;;;;5060432;28;20036;-68
2021/09/07 09:37:06;;;;;;;6.28;3.08;;;18.40;81.90;;;;;;5059889;28;20032;-68
2021/09/07 09:39:48;;;;;;;6.68;3.50;;;18.40;81.90;;;;;;5061310;28;20033;-68
2021/09/07 09:42:43;;;;;;;6.47;3.35;;;18.40;79.10;;;;;;5062266;28;20025;-68
2021/09/07 09:45:09;;;;;;;4.28;2.90;;;18.50;78.90;;;;;;5059216;28;20102;-68
2021/09/07 09:47:51;;;;;;;4.97;3.03;;;18.60;79.90;;;;;;5058461;28;20033;-68
2021/09/07 09:50:18;;;;;;;5.40;3.20;;;18.60;79.90;;;;;;5061497;28;20262;-68
2021/09/07 09:52:47;;;;;;;7.78;3.45;;;18.70;79.70;;;;;;5059850;28;20028;-68
2021/09/07 09:55:14;;;;;;;7.95;3.58;;;18.80;80.20;;;;;;5060865;28;20425;-67
2021/09/07 09:57:41;;;;;;;6.40;3.58;;;18.90;78.70;;;;;;5059306;28;20089;-68
2021/09/07 10:00:17;;;;;;;3.97;2.63;;;19.10;78.80;;;;;;5060020;28;20105;-68
2021/09/07 10:02:44;;;;;;;5.22;2.90;;;19.20;79.30;;;;;;5061099;28;20025;-68
2021/09/07 10:05:11;;;;;;;3.92;2.80;;;19.30;79.80;;;;;;5057945;28;20111;-68
2021/09/07 10:07:37;;;;;;;5.47;3.58;;;19.30;80.20;;;;;;5061744;28;20459;-68
2021/09/07 10:10:04;;;;;;;6.25;3.28;;;19.50;77.90;;;;;;5059031;28;20119;-68
2021/09/07 10:12:40;;;;;;;5.63;3.30;;;19.60;78.00;;;;;;5058097;28;20028;-68
2021/09/07 10:15:23;;;;;;;8.80;3.45;;;19.70;77.30;;;;;;5059166;28;20037;-68
2021/09/07 10:17:52;;;;;;;6.38;3.00;;;19.80;77.00;;;;;;5058897;28;20017;-68
2021/09/07 10:20:45;;;;;;;6.47;3.13;;;20.00;77.90;;;;;;5076287;28;20025;-69
2021/09/07 10:23:31;;;;;;;5.40;3.13;;;20.10;76.40;;;;;;5057451;28;20028;-68
2021/09/07 10:25:58;;;;;;;5.85;3.83;;;20.20;75.90;;;;;;5058438;28;20020;-68
2021/09/07 10:28:37;;;;;;;6.10;3.50;;;20.20;74.90;;;;;;5059095;28;20032;-68
2021/09/07 10:31:10;;;;;;;4.32;3.03;;;20.30;75.90;;;;;;5054109;28;20105;-74
2021/09/07 10:33:56;;;;;;;5.45;3.10;;;20.40;76.10;;;;;;5056376;28;20048;-73
2021/09/07 10:36:24;;;;;;;5.50;3.05;;;20.50;76.00;;;;;;5060076;28;20495;-74
2021/09/07 10:38:58;;;;;;;5.45;3.45;;;20.60;76.00;;;;;;5060139;28;20025;-74
2021/09/07 10:41:29;;;;;;;5.70;3.20;;;20.70;75.70;;;;;;5061143;28;20033;-74
2021/09/07 10:43:57;;;;;;;3.97;2.90;;;20.70;75.00;;;;;;5058615;28;20067;-75
2021/09/07 10:46:43;;;;;;;5.30;3.03;;;20.80;74.10;;;;;;5057896;28;20173;-70
2021/09/07 10:49:17;;;;;;;6.20;2.90;;;20.90;74.30;;;;;;5058064;28;20021;-72
2021/09/07 10:52:14;;;;;;;4.07;3.00;;;21.00;74.60;;;;;;5060943;28;20066;-72
2021/09/07 10:54:49;;;;;;;4.80;3.00;;;21.00;73.50;;;;;;5058639;28;20064;-73
2021/09/07 10:57:43;;;;;;;4.95;2.47;;;21.00;73.00;;;;;;5061098;28;20025;-73
2021/09/07 11:00:21;;;;;;;4.72;2.75;;;21.10;73.30;;;;;;5058239;28;20466;-71
2021/09/07 11:02:52;;;;;;;6.55;2.97;;;21.20;74.70;;;;;;5058879;28;20040;-70
2021/09/07 11:05:37;;;;;;;5.00;3.10;;;21.40;75.10;;;;;;5057061;28;20035;-70
2021/09/07 11:08:36;;;;;;;4.82;2.88;;;21.70;74.80;;;;;;5059068;28;20033;-70
2021/09/07 11:11:22;;;;;;;5.85;3.08;;;22.30;73.60;;;;;;5060925;28;20083;-72
2021/09/07 11:13:49;;;;;;;5.20;3.00;;;23.40;69.10;;;;;;5060023;28;20078;-71
2021/09/07 11:16:14;;;;;;;6.43;3.30;;;25.20;65.00;;;;;;5061933;28;20031;-71
2021/09/07 11:18:42;;;;;;;4.00;2.47;;;27.30;60.20;;;;;;5065186;28;20028;-73
2021/09/07 11:21:08;;;;;;;4.18;3.17;;;29.30;52.90;;;;;;5062328;28;20040;-71
2021/09/07 11:23:38;;;;;;;4.22;3.00;;;31.10;47.80;;;;;;5062073;28;20025;-68
2021/09/07 11:26:16;;;;;;;3.55;2.38;;;32.20;42.90;;;;;;5068998;28;20037;-71
2021/09/07 11:28:47;;;;;;;4.95;3.10;;;33.00;41.90;;;;;;5062183;28;20032;-71
2021/09/07 11:31:14;;;;;;;4.13;2.90;;;33.20;40.50;;;;;;5061847;28;20025;-72
2021/09/07 11:33:41;;;;;;;4.53;3.13;;;33.50;40.60;;;;;;5061184;28;20119;-72
2021/09/07 11:36:09;;;;;;;4.57;2.85;;;33.40;40.60;;;;;;5062987;28;20078;-70
2021/09/07 11:38:49;;;;;;;3.47;3.00;;;33.50;40.00;;;;;;5060370;28;20514;-71
2021/09/07 11:41:17;;;;;;;5.75;2.90;;;33.90;39.40;;;;;;5060160;28;20103;-70
2021/09/07 11:43:53;;;;;;;4.32;3.30;;;33.80;39.00;;;;;;5060669;28;20056;-71
2021/09/07 11:46:20;;;;;;;3.78;2.67;;;33.90;38.40;;;;;;5063722;28;20409;-70
2021/09/07 11:48:52;;;;;;;4.32;2.83;;;33.80;38.90;;;;;;5061808;28;20078;-70
2021/09/07 11:51:25;;;;;;;4.75;3.10;;;33.50;38.80;;;;;;5063640;28;20298;-71
2021/09/07 11:54:00;;;;;;;3.58;2.95;;;33.20;38.00;;;;;;5061931;28;20037;-71
2021/09/07 11:56:28;;;;;;;3.63;3.22;;;32.80;39.70;;;;;;5063004;28;20037;-71
2021/09/07 11:59:15;;;;;;;4.85;2.88;;;32.40;40.20;;;;;;5054788;28;20445;-70
2021/09/07 12:01:49;;;;;;;3.53;2.78;;;31.70;41.40;;;;;;5061490;28;20515;-71
2021/09/07 12:04:20;;;;;;;4.07;3.08;;;30.70;43.00;;;;;;5060669;28;20050;-72
2021/09/07 12:06:53;;;;;;;6.63;3.17;;;29.80;44.00;;;;;;5059603;28;20029;-72
2021/09/07 12:09:20;;;;;;;5.60;3.17;;;29.00;44.80;;;;;;5061544;28;20043;-72
2021/09/07 12:12:12;;;;;;;4.85;3.35;;;28.60;45.50;;;;;;5059684;28;20070;-72
2021/09/07 12:14:45;;;;;;;4.78;3.60;;;28.40;46.90;;;;;;5060862;28;20037;-73
2021/09/07 12:17:17;;;;;;;4.30;3.03;;;28.30;48.00;;;;;;5059914;28;20446;-72
2021/09/07 12:19:46;;;;;;;3.42;2.70;;;28.20;48.00;;;;;;5063337;28;20025;-73
2021/09/07 12:22:21;;;;;;;4.95;3.30;;;28.40;47.60;;;;;;5062258;28;20021;-72
2021/09/07 12:25:11;;;;;;;6.22;3.67;;;28.60;46.90;;;;;;5063529;28;20360;-73
2021/09/07 12:27:44;;;;;;;5.60;3.40;;;29.00;46.40;;;;;;5057865;28;20502;-72
2021/09/07 12:30:38;;;;;;;5.38;3.50;;;29.10;45.20;;;;;;5062475;28;20040;-72
2021/09/07 12:33:17;;;;;;;4.93;3.35;;;29.50;44.70;;;;;;5058921;28;20024;-72
2021/09/07 12:35:53;;;;;;;5.50;3.75;;;29.90;44.20;;;;;;5060738;28;20058;-72
2021/09/07 12:38:22;;;;;;;5.55;3.40;;;30.30;44.30;;;;;;5059051;28;20029;-72
2021/09/07 12:40:56;;;;;;;5.30;3.58;;;30.80;44.00;;;;;;5062443;28;20024;-72
2021/09/07 12:43:23;;;;;;;5.68;4.00;;;31.00;42.70;;;;;;5061343;28;20021;-72